JBU1501 KJFK-KFLL
Flight info
| Callsign | JBU1501 |
|---|---|
| Flight time | 2h 38m |
| Altitude | 34000 |
| Route | N0447F340 DCT WAVEY DCT EMJAY Q167 ZJAAY DCT KALDA Q161 CHIEZ Y291 MAJIK CUUDA3 |
| Aircraft | A320/M-SDE3FGHIRWY/LB1 |
Departure
| Time | 2026-05-08 23:30 |
|---|---|
| Airport | John F. Kennedy International Airport (KJFK) |
Arrival
| Time | 2026-05-09 02:08 |
|---|---|
| Airport | Fort Lauderdale Hollywood International Airport (KFLL) |
| Time | Latitude | Longitude | Altitude | Speed | Heading |
|---|---|---|---|---|---|
| 2026-05-08 22:53 | 40.64639 | -73.77485 | 27 ft | 0 kts | 219° |
| 2026-05-08 23:13 | 40.64645 | -73.77478 | 27 ft | 2 kts | 219° |
| 2026-05-08 23:14 | 40.64658 | -73.77464 | 27 ft | 2 kts | 219° |
| 2026-05-08 23:14 | 40.64672 | -73.77449 | 27 ft | 3 kts | 219° |
| 2026-05-08 23:14 | 40.64689 | -73.77435 | 27 ft | 3 kts | 202° |
| 2026-05-08 23:14 | 40.64709 | -73.77428 | 27 ft | 3 kts | 184° |
| 2026-05-08 23:15 | 40.64730 | -73.77431 | 27 ft | 3 kts | 166° |
| 2026-05-08 23:15 | 40.64749 | -73.77441 | 27 ft | 3 kts | 150° |
| 2026-05-08 23:15 | 40.64765 | -73.77457 | 27 ft | 3 kts | 137° |
| 2026-05-08 23:15 | 40.64778 | -73.77474 | 27 ft | 2 kts | 131° |
| 2026-05-08 23:16 | 40.64779 | -73.77476 | 27 ft | 0 kts | 131° |
| 2026-05-08 23:18 | 40.64778 | -73.77474 | 27 ft | 1 kts | 132° |
| 2026-05-08 23:19 | 40.64764 | -73.77455 | 27 ft | 5 kts | 131° |
| 2026-05-08 23:19 | 40.64750 | -73.77410 | 27 ft | 6 kts | 109° |
| 2026-05-08 23:19 | 40.64757 | -73.77375 | 27 ft | 3 kts | 30° |
| 2026-05-08 23:19 | 40.64775 | -73.77356 | 27 ft | 5 kts | 59° |
| 2026-05-08 23:20 | 40.64773 | -73.77301 | 27 ft | 8 kts | 115° |
| 2026-05-08 23:20 | 40.64737 | -73.77228 | 27 ft | 11 kts | 121° |
| 2026-05-08 23:20 | 40.64696 | -73.77148 | 27 ft | 10 kts | 130° |
| 2026-05-08 23:20 | 40.64635 | -73.77100 | 27 ft | 10 kts | 166° |
| 2026-05-08 23:21 | 40.64564 | -73.77094 | 27 ft | 10 kts | 180° |
| 2026-05-08 23:21 | 40.64493 | -73.77097 | 27 ft | 10 kts | 182° |
| 2026-05-08 23:21 | 40.64433 | -73.77088 | 27 ft | 7 kts | 123° |
| 2026-05-08 23:21 | 40.64421 | -73.77027 | 27 ft | 7 kts | 104° |
| 2026-05-08 23:22 | 40.64407 | -73.76962 | 27 ft | 9 kts | 109° |
| 2026-05-08 23:22 | 40.64380 | -73.76887 | 27 ft | 7 kts | 144° |
| 2026-05-08 23:22 | 40.64331 | -73.76888 | 27 ft | 8 kts | 192° |
| 2026-05-08 23:22 | 40.64268 | -73.76893 | 27 ft | 11 kts | 176° |
| 2026-05-08 23:23 | 40.64180 | -73.76891 | 27 ft | 14 kts | 182° |
| 2026-05-08 23:23 | 40.64078 | -73.76902 | 27 ft | 15 kts | 185° |
| 2026-05-08 23:23 | 40.63974 | -73.76911 | 27 ft | 15 kts | 181° |
| 2026-05-08 23:23 | 40.63872 | -73.76913 | 27 ft | 15 kts | 181° |
| 2026-05-08 23:24 | 40.63769 | -73.76914 | 27 ft | 15 kts | 181° |
| 2026-05-08 23:24 | 40.63668 | -73.76916 | 27 ft | 15 kts | 180° |
| 2026-05-08 23:24 | 40.63563 | -73.76918 | 27 ft | 15 kts | 181° |
| 2026-05-08 23:24 | 40.63454 | -73.76929 | 27 ft | 16 kts | 187° |
| 2026-05-08 23:25 | 40.63362 | -73.76941 | 27 ft | 11 kts | 183° |
| 2026-05-08 23:25 | 40.63281 | -73.76947 | 27 ft | 13 kts | 183° |
| 2026-05-08 23:25 | 40.63201 | -73.76947 | 27 ft | 12 kts | 182° |
| 2026-05-08 23:25 | 40.63125 | -73.76992 | 27 ft | 13 kts | 208° |
| 2026-05-08 23:26 | 40.63047 | -73.77046 | 27 ft | 10 kts | 207° |
| 2026-05-08 23:26 | 40.62981 | -73.77092 | 27 ft | 11 kts | 208° |
| 2026-05-08 23:26 | 40.62917 | -73.77138 | 27 ft | 10 kts | 208° |
| 2026-05-08 23:26 | 40.62887 | -73.77162 | 27 ft | 0 kts | 211° |
| 2026-05-08 23:27 | 40.62886 | -73.77162 | 27 ft | 0 kts | 211° |
| 2026-05-08 23:27 | 40.62886 | -73.77163 | 27 ft | 0 kts | 211° |
| 2026-05-08 23:28 | 40.62880 | -73.77167 | 27 ft | 1 kts | 211° |
| 2026-05-08 23:28 | 40.62873 | -73.77173 | 27 ft | 1 kts | 210° |
| 2026-05-08 23:28 | 40.62860 | -73.77183 | 27 ft | 3 kts | 210° |
| 2026-05-08 23:28 | 40.62837 | -73.77201 | 27 ft | 5 kts | 210° |
| 2026-05-08 23:29 | 40.62828 | -73.77237 | 27 ft | 5 kts | 285° |
| 2026-05-08 23:29 | 40.62871 | -73.77333 | 27 ft | 30 kts | 302° |
| 2026-05-08 23:29 | 40.63095 | -73.77835 | 27 ft | 96 kts | 302° |
| 2026-05-08 23:29 | 40.63537 | -73.78808 | 28 ft | 150 kts | 303° |
| 2026-05-08 23:30 | 40.64121 | -73.80104 | 285 ft | 166 kts | 303° |
| 2026-05-08 23:30 | 40.64701 | -73.81435 | 747 ft | 176 kts | 300° |
| 2026-05-08 23:30 | 40.64920 | -73.83094 | 1032 ft | 199 kts | 259° |
| 2026-05-08 23:30 | 40.64142 | -73.84728 | 1339 ft | 225 kts | 219° |
| 2026-05-08 23:31 | 40.62812 | -73.85822 | 2066 ft | 228 kts | 212° |
| 2026-05-08 23:31 | 40.61490 | -73.86921 | 2924 ft | 221 kts | 222° |
| 2026-05-08 23:31 | 40.60234 | -73.88055 | 3839 ft | 220 kts | 211° |
| 2026-05-08 23:31 | 40.58726 | -73.88439 | 4488 ft | 232 kts | 182° |
| 2026-05-08 23:32 | 40.57620 | -73.88100 | 4774 ft | 253 kts | 162° |
| 2026-05-08 23:32 | 40.56119 | -73.86661 | 5179 ft | 282 kts | 135° |
| 2026-05-08 23:32 | 40.54913 | -73.83505 | 5922 ft | 302 kts | 104° |
| 2026-05-08 23:32 | 40.54639 | -73.81604 | 6447 ft | 304 kts | 99° |
| 2026-05-08 23:33 | 40.54343 | -73.78852 | 7078 ft | 310 kts | 97° |
| 2026-05-08 23:33 | 40.54065 | -73.76002 | 7737 ft | 315 kts | 97° |
| 2026-05-08 23:33 | 40.53781 | -73.73096 | 8384 ft | 320 kts | 97° |
| 2026-05-08 23:33 | 40.53474 | -73.70220 | 9001 ft | 325 kts | 101° |
| 2026-05-08 23:34 | 40.52672 | -73.67398 | 9586 ft | 327 kts | 125° |
| 2026-05-08 23:34 | 40.51136 | -73.65244 | 10177 ft | 322 kts | 149° |
| 2026-05-08 23:34 | 40.49299 | -73.63594 | 10673 ft | 328 kts | 153° |
| 2026-05-08 23:34 | 40.47337 | -73.61940 | 11029 ft | 342 kts | 153° |
| 2026-05-08 23:35 | 40.45322 | -73.60161 | 11378 ft | 355 kts | 150° |
| 2026-05-08 23:35 | 40.43277 | -73.58242 | 11708 ft | 368 kts | 149° |
| 2026-05-08 23:35 | 40.41175 | -73.56208 | 12004 ft | 381 kts | 148° |
| 2026-05-08 23:35 | 40.39014 | -73.54116 | 12416 ft | 389 kts | 148° |
| 2026-05-08 23:36 | 40.36818 | -73.52020 | 12963 ft | 391 kts | 149° |
| 2026-05-08 23:36 | 40.34599 | -73.49932 | 13489 ft | 395 kts | 149° |
| 2026-05-08 23:36 | 40.32406 | -73.47882 | 13967 ft | 399 kts | 149° |
| 2026-05-08 23:36 | 40.30160 | -73.45780 | 14459 ft | 403 kts | 149° |
| 2026-05-08 23:37 | 40.27872 | -73.43629 | 14938 ft | 406 kts | 149° |
| 2026-05-08 23:37 | 40.25567 | -73.41461 | 15389 ft | 410 kts | 150° |
| 2026-05-08 23:37 | 40.23238 | -73.39270 | 15824 ft | 413 kts | 150° |
| 2026-05-08 23:37 | 40.20893 | -73.37066 | 16247 ft | 417 kts | 150° |
| 2026-05-08 23:38 | 40.18528 | -73.34850 | 16694 ft | 421 kts | 150° |
| 2026-05-08 23:38 | 40.16138 | -73.32611 | 17153 ft | 424 kts | 150° |
| 2026-05-08 23:38 | 40.13677 | -73.30474 | 17574 ft | 421 kts | 160° |
| 2026-05-08 23:38 | 40.10989 | -73.29196 | 17975 ft | 404 kts | 180° |
| 2026-05-08 23:39 | 40.08266 | -73.29127 | 18397 ft | 381 kts | 201° |
| 2026-05-08 23:39 | 40.05828 | -73.30156 | 18836 ft | 359 kts | 218° |
| 2026-05-08 23:39 | 40.03813 | -73.31943 | 19279 ft | 344 kts | 231° |
| 2026-05-08 23:39 | 40.02036 | -73.34029 | 19724 ft | 343 kts | 233° |
| 2026-05-08 23:40 | 40.00310 | -73.36131 | 20175 ft | 344 kts | 233° |
| 2026-05-08 23:40 | 39.98523 | -73.38249 | 20636 ft | 346 kts | 232° |
| 2026-05-08 23:40 | 39.96695 | -73.40319 | 21095 ft | 348 kts | 232° |
| 2026-05-08 23:40 | 39.94838 | -73.42366 | 21535 ft | 349 kts | 231° |
| 2026-05-08 23:41 | 39.93000 | -73.44382 | 21956 ft | 350 kts | 232° |
| 2026-05-08 23:41 | 39.91143 | -73.46437 | 22371 ft | 350 kts | 232° |
| 2026-05-08 23:41 | 39.89292 | -73.48503 | 22776 ft | 350 kts | 232° |
| 2026-05-08 23:41 | 39.87444 | -73.50564 | 22960 ft | 348 kts | 232° |
| 2026-05-08 23:42 | 39.85604 | -73.52612 | 22961 ft | 348 kts | 232° |
| 2026-05-08 23:42 | 39.83761 | -73.54666 | 22960 ft | 348 kts | 232° |
| 2026-05-08 23:42 | 39.81917 | -73.56720 | 22959 ft | 348 kts | 232° |
| 2026-05-08 23:42 | 39.80078 | -73.58766 | 22958 ft | 348 kts | 232° |
| 2026-05-08 23:43 | 39.78239 | -73.60812 | 22958 ft | 348 kts | 232° |
| 2026-05-08 23:43 | 39.76398 | -73.62865 | 22957 ft | 348 kts | 232° |
| 2026-05-08 23:43 | 39.74561 | -73.64912 | 22956 ft | 348 kts | 232° |
| 2026-05-08 23:43 | 39.72720 | -73.66958 | 22955 ft | 348 kts | 232° |
| 2026-05-08 23:44 | 39.70875 | -73.69002 | 22955 ft | 348 kts | 232° |
| 2026-05-08 23:44 | 39.69050 | -73.71023 | 22954 ft | 348 kts | 232° |
| 2026-05-08 23:44 | 39.67206 | -73.73059 | 22953 ft | 348 kts | 232° |
| 2026-05-08 23:44 | 39.65500 | -73.74947 | 22951 ft | 347 kts | 232° |
| 2026-05-08 23:45 | 39.63664 | -73.76982 | 22952 ft | 347 kts | 232° |
| 2026-05-08 23:45 | 39.61821 | -73.79024 | 22952 ft | 347 kts | 232° |
| 2026-05-08 23:45 | 39.59984 | -73.81056 | 22951 ft | 347 kts | 232° |
| 2026-05-08 23:45 | 39.58145 | -73.83087 | 22949 ft | 347 kts | 232° |
| 2026-05-08 23:46 | 39.56306 | -73.85114 | 22948 ft | 347 kts | 232° |
| 2026-05-08 23:46 | 39.54459 | -73.87146 | 22948 ft | 346 kts | 231° |
| 2026-05-08 23:46 | 39.52645 | -73.89139 | 22950 ft | 346 kts | 231° |
| 2026-05-08 23:46 | 39.50815 | -73.91157 | 22951 ft | 346 kts | 232° |
| 2026-05-08 23:47 | 39.48981 | -73.93180 | 23042 ft | 346 kts | 232° |
| 2026-05-08 23:47 | 39.47137 | -73.95207 | 23358 ft | 349 kts | 231° |
| 2026-05-08 23:47 | 39.45274 | -73.97251 | 23721 ft | 350 kts | 231° |
| 2026-05-08 23:47 | 39.43415 | -73.99292 | 24075 ft | 351 kts | 231° |
| 2026-05-08 23:48 | 39.41544 | -74.01348 | 24420 ft | 352 kts | 231° |
| 2026-05-08 23:48 | 39.39673 | -74.03394 | 24754 ft | 353 kts | 231° |
| 2026-05-08 23:48 | 39.37816 | -74.05424 | 25073 ft | 355 kts | 231° |
| 2026-05-08 23:48 | 39.35907 | -74.07513 | 25391 ft | 356 kts | 231° |
| 2026-05-08 23:49 | 39.34010 | -74.09582 | 25705 ft | 357 kts | 231° |
| 2026-05-08 23:49 | 39.32110 | -74.11649 | 26010 ft | 358 kts | 231° |
| 2026-05-08 23:49 | 39.30199 | -74.13729 | 26309 ft | 359 kts | 231° |
| 2026-05-08 23:49 | 39.28286 | -74.15817 | 26604 ft | 360 kts | 231° |
| 2026-05-08 23:50 | 39.26366 | -74.17915 | 26889 ft | 362 kts | 231° |
| 2026-05-08 23:50 | 39.24437 | -74.20017 | 27174 ft | 363 kts | 231° |
| 2026-05-08 23:50 | 39.22504 | -74.22120 | 27442 ft | 364 kts | 231° |
| 2026-05-08 23:50 | 39.20561 | -74.24232 | 27711 ft | 365 kts | 231° |
| 2026-05-08 23:51 | 39.18641 | -74.26317 | 27969 ft | 366 kts | 231° |
| 2026-05-08 23:51 | 39.16685 | -74.28434 | 28231 ft | 368 kts | 231° |
| 2026-05-08 23:51 | 39.14747 | -74.30534 | 28483 ft | 368 kts | 231° |
| 2026-05-08 23:51 | 39.12762 | -74.32687 | 28741 ft | 369 kts | 231° |
| 2026-05-08 23:52 | 39.10792 | -74.34820 | 28989 ft | 371 kts | 231° |
| 2026-05-08 23:52 | 39.08818 | -74.36956 | 29237 ft | 371 kts | 231° |
| 2026-05-08 23:52 | 39.06838 | -74.39093 | 29542 ft | 370 kts | 231° |
| 2026-05-08 23:52 | 39.04866 | -74.41219 | 29927 ft | 368 kts | 231° |
| 2026-05-08 23:53 | 39.02912 | -74.43326 | 30287 ft | 366 kts | 232° |
| 2026-05-08 23:53 | 39.00964 | -74.45430 | 30564 ft | 366 kts | 232° |
| 2026-05-08 23:53 | 38.99013 | -74.47532 | 30804 ft | 366 kts | 232° |
| 2026-05-08 23:53 | 38.97061 | -74.49640 | 31030 ft | 367 kts | 232° |
| 2026-05-08 23:54 | 38.95107 | -74.51752 | 31255 ft | 368 kts | 231° |
| 2026-05-08 23:54 | 38.93172 | -74.53909 | 31474 ft | 366 kts | 233° |
| 2026-05-08 23:54 | 38.91279 | -74.56111 | 31693 ft | 367 kts | 233° |
| 2026-05-08 23:55 | 38.87516 | -74.60553 | 32118 ft | 368 kts | 233° |
| 2026-05-08 23:55 | 38.85620 | -74.62778 | 32322 ft | 369 kts | 232° |
| 2026-05-08 23:55 | 38.83741 | -74.64971 | 32522 ft | 370 kts | 232° |
| 2026-05-08 23:55 | 38.81831 | -74.67197 | 32725 ft | 371 kts | 232° |
| 2026-05-08 23:56 | 38.79914 | -74.69429 | 32918 ft | 371 kts | 232° |
| 2026-05-08 23:56 | 38.78006 | -74.71652 | 33113 ft | 372 kts | 232° |
| 2026-05-08 23:56 | 38.76087 | -74.73898 | 33300 ft | 373 kts | 232° |
| 2026-05-08 23:56 | 38.74123 | -74.76091 | 33482 ft | 376 kts | 229° |
| 2026-05-08 23:57 | 38.72097 | -74.78220 | 33668 ft | 378 kts | 229° |
| 2026-05-08 23:57 | 38.70052 | -74.80337 | 33841 ft | 379 kts | 228° |
| 2026-05-08 23:57 | 38.68000 | -74.82455 | 34001 ft | 380 kts | 228° |
| 2026-05-08 23:58 | 38.63856 | -74.86773 | 34009 ft | 386 kts | 228° |
| 2026-05-08 23:58 | 38.59699 | -74.91099 | 34005 ft | 389 kts | 228° |
| 2026-05-08 23:59 | 38.55483 | -74.95462 | 34003 ft | 389 kts | 228° |
| 2026-05-08 23:59 | 38.51329 | -74.99875 | 34003 ft | 387 kts | 230° |
| 2026-05-09 00:00 | 38.47311 | -75.04344 | 33987 ft | 373 kts | 231° |
| 2026-05-09 00:00 | 38.43173 | -75.08473 | 34009 ft | 382 kts | 228° |
| 2026-05-09 00:01 | 38.38888 | -75.12509 | 34023 ft | 387 kts | 227° |
| 2026-05-09 00:01 | 38.34550 | -75.16588 | 34028 ft | 386 kts | 228° |
| 2026-05-09 00:02 | 38.30243 | -75.20690 | 34030 ft | 386 kts | 228° |
| 2026-05-09 00:02 | 38.25928 | -75.24783 | 34035 ft | 386 kts | 228° |
| 2026-05-09 00:03 | 38.21638 | -75.28841 | 34043 ft | 386 kts | 228° |
| 2026-05-09 00:03 | 38.17315 | -75.32916 | 34063 ft | 386 kts | 228° |
| 2026-05-09 00:04 | 38.13005 | -75.36980 | 34095 ft | 385 kts | 228° |
| 2026-05-09 00:04 | 38.08703 | -75.41023 | 34089 ft | 384 kts | 228° |
| 2026-05-09 00:05 | 38.04379 | -75.45039 | 34073 ft | 386 kts | 227° |
| 2026-05-09 00:05 | 37.99975 | -75.48888 | 34061 ft | 387 kts | 226° |
| 2026-05-09 00:06 | 37.95532 | -75.52745 | 34041 ft | 386 kts | 226° |
| 2026-05-09 00:06 | 37.91114 | -75.56599 | 34053 ft | 385 kts | 226° |
| 2026-05-09 00:07 | 37.86692 | -75.60449 | 34029 ft | 386 kts | 226° |
| 2026-05-09 00:07 | 37.81798 | -75.63619 | 34007 ft | 412 kts | 211° |
| 2026-05-09 00:08 | 37.76206 | -75.65519 | 34010 ft | 419 kts | 208° |
| 2026-05-09 00:08 | 37.70579 | -75.67334 | 34048 ft | 415 kts | 209° |
| 2026-05-09 00:09 | 37.65047 | -75.69320 | 34103 ft | 411 kts | 210° |
| 2026-05-09 00:09 | 37.59588 | -75.71282 | 34095 ft | 409 kts | 210° |
| 2026-05-09 00:10 | 37.54113 | -75.73187 | 34098 ft | 406 kts | 210° |
| 2026-05-09 00:10 | 37.48681 | -75.75071 | 34058 ft | 403 kts | 210° |
| 2026-05-09 00:11 | 37.43295 | -75.76961 | 34015 ft | 401 kts | 210° |
| 2026-05-09 00:11 | 37.37922 | -75.78842 | 34000 ft | 401 kts | 210° |
| 2026-05-09 00:12 | 37.33454 | -75.80397 | 34001 ft | 401 kts | 210° |
| 2026-05-09 00:12 | 37.28060 | -75.82276 | 33994 ft | 403 kts | 210° |
| 2026-05-09 00:13 | 37.22641 | -75.84153 | 33993 ft | 405 kts | 210° |
| 2026-05-09 00:13 | 37.17202 | -75.86035 | 33990 ft | 407 kts | 210° |
| 2026-05-09 00:14 | 37.11739 | -75.87929 | 34038 ft | 407 kts | 210° |
| 2026-05-09 00:14 | 37.06579 | -75.90362 | 34075 ft | 385 kts | 221° |
| 2026-05-09 00:15 | 37.01975 | -75.93642 | 34081 ft | 381 kts | 224° |
| 2026-05-09 00:15 | 36.97369 | -75.96962 | 34063 ft | 384 kts | 223° |
| 2026-05-09 00:16 | 36.92657 | -76.00194 | 34020 ft | 386 kts | 222° |
| 2026-05-09 00:16 | 36.87918 | -76.03449 | 34008 ft | 386 kts | 222° |
| 2026-05-09 00:17 | 36.83208 | -76.06718 | 34020 ft | 386 kts | 222° |
| 2026-05-09 00:17 | 36.78539 | -76.09956 | 34070 ft | 386 kts | 222° |
| 2026-05-09 00:18 | 36.73815 | -76.13206 | 34097 ft | 385 kts | 222° |
| 2026-05-09 00:18 | 36.69134 | -76.16425 | 34096 ft | 384 kts | 222° |
| 2026-05-09 00:19 | 36.64502 | -76.19610 | 34097 ft | 381 kts | 223° |
| 2026-05-09 00:19 | 36.59862 | -76.22801 | 34072 ft | 380 kts | 223° |
| 2026-05-09 00:20 | 36.55239 | -76.25977 | 34029 ft | 379 kts | 223° |
| 2026-05-09 00:20 | 36.50617 | -76.29138 | 34017 ft | 379 kts | 223° |
| 2026-05-09 00:21 | 36.45999 | -76.32296 | 34022 ft | 379 kts | 223° |
| 2026-05-09 00:21 | 36.41375 | -76.35461 | 34021 ft | 380 kts | 222° |
| 2026-05-09 00:22 | 36.36730 | -76.38630 | 34029 ft | 381 kts | 222° |
| 2026-05-09 00:22 | 36.32107 | -76.41777 | 34047 ft | 382 kts | 222° |
| 2026-05-09 00:23 | 36.27458 | -76.44941 | 34076 ft | 382 kts | 222° |
| 2026-05-09 00:23 | 36.22790 | -76.48112 | 34090 ft | 382 kts | 222° |
| 2026-05-09 00:24 | 36.18118 | -76.51282 | 34098 ft | 383 kts | 222° |
| 2026-05-09 00:24 | 36.13446 | -76.54449 | 34108 ft | 383 kts | 222° |
| 2026-05-09 00:25 | 36.08787 | -76.57599 | 34120 ft | 383 kts | 222° |
| 2026-05-09 00:25 | 36.04112 | -76.60759 | 34128 ft | 383 kts | 222° |
| 2026-05-09 00:26 | 35.99394 | -76.63939 | 34129 ft | 384 kts | 222° |
| 2026-05-09 00:26 | 35.94705 | -76.67099 | 34112 ft | 384 kts | 222° |
| 2026-05-09 00:27 | 35.90008 | -76.70233 | 34071 ft | 386 kts | 221° |
| 2026-05-09 00:27 | 35.85177 | -76.73196 | 34029 ft | 388 kts | 220° |
| 2026-05-09 00:28 | 35.80352 | -76.76118 | 34017 ft | 388 kts | 220° |
| 2026-05-09 00:28 | 35.75515 | -76.79080 | 34023 ft | 389 kts | 220° |
| 2026-05-09 00:29 | 35.70644 | -76.82054 | 34026 ft | 391 kts | 220° |
| 2026-05-09 00:29 | 35.65719 | -76.85049 | 34030 ft | 393 kts | 220° |
| 2026-05-09 00:30 | 35.60804 | -76.88033 | 34034 ft | 394 kts | 220° |
| 2026-05-09 00:30 | 35.55874 | -76.91028 | 34038 ft | 395 kts | 220° |
| 2026-05-09 00:31 | 35.50931 | -76.94073 | 34035 ft | 397 kts | 220° |
| 2026-05-09 00:31 | 35.46020 | -76.97088 | 34076 ft | 397 kts | 220° |
| 2026-05-09 00:32 | 35.41075 | -77.00109 | 34128 ft | 397 kts | 220° |
| 2026-05-09 00:32 | 35.36116 | -77.03141 | 34122 ft | 397 kts | 220° |
| 2026-05-09 00:33 | 35.31169 | -77.06159 | 34121 ft | 397 kts | 220° |
| 2026-05-09 00:33 | 35.26237 | -77.09167 | 34117 ft | 395 kts | 220° |
| 2026-05-09 00:34 | 35.21334 | -77.12154 | 34077 ft | 395 kts | 220° |
| 2026-05-09 00:34 | 35.16405 | -77.15145 | 34040 ft | 395 kts | 220° |
| 2026-05-09 00:35 | 35.11481 | -77.18136 | 34062 ft | 394 kts | 220° |
| 2026-05-09 00:35 | 35.06561 | -77.21124 | 34035 ft | 394 kts | 220° |
| 2026-05-09 00:36 | 35.01642 | -77.24102 | 34041 ft | 394 kts | 220° |
| 2026-05-09 00:36 | 34.96755 | -77.27056 | 34062 ft | 394 kts | 220° |
| 2026-05-09 00:37 | 34.91853 | -77.30015 | 34118 ft | 393 kts | 220° |
| 2026-05-09 00:37 | 34.86951 | -77.32971 | 34120 ft | 393 kts | 220° |
| 2026-05-09 00:38 | 34.82046 | -77.35928 | 34126 ft | 393 kts | 219° |
| 2026-05-09 00:38 | 34.77137 | -77.38879 | 34126 ft | 393 kts | 219° |
| 2026-05-09 00:39 | 34.72230 | -77.41821 | 34125 ft | 393 kts | 219° |
| 2026-05-09 00:39 | 34.67324 | -77.44765 | 34126 ft | 393 kts | 219° |
| 2026-05-09 00:40 | 34.62424 | -77.47703 | 34125 ft | 393 kts | 219° |
| 2026-05-09 00:40 | 34.57559 | -77.50611 | 34130 ft | 392 kts | 219° |
| 2026-05-09 00:41 | 34.49939 | -77.54563 | 34102 ft | 414 kts | 207° |
| 2026-05-09 00:41 | 34.44191 | -77.55829 | 34086 ft | 423 kts | 203° |
| 2026-05-09 00:42 | 34.38392 | -77.56954 | 34104 ft | 420 kts | 204° |
| 2026-05-09 00:42 | 34.32675 | -77.58245 | 34125 ft | 416 kts | 205° |
| 2026-05-09 00:43 | 34.27012 | -77.59532 | 34124 ft | 416 kts | 204° |
| 2026-05-09 00:43 | 34.21295 | -77.60777 | 34084 ft | 416 kts | 204° |
| 2026-05-09 00:44 | 34.15594 | -77.62022 | 34041 ft | 416 kts | 204° |
| 2026-05-09 00:44 | 34.09907 | -77.63275 | 34040 ft | 416 kts | 204° |
| 2026-05-09 00:45 | 34.04233 | -77.64520 | 34037 ft | 417 kts | 204° |
| 2026-05-09 00:45 | 33.98509 | -77.65775 | 34039 ft | 418 kts | 204° |
| 2026-05-09 00:46 | 33.92770 | -77.67031 | 34041 ft | 420 kts | 204° |
| 2026-05-09 00:46 | 33.87005 | -77.68288 | 34037 ft | 422 kts | 204° |
| 2026-05-09 00:47 | 33.81224 | -77.69546 | 34078 ft | 422 kts | 204° |
| 2026-05-09 00:47 | 33.75441 | -77.70805 | 34133 ft | 422 kts | 204° |
| 2026-05-09 00:48 | 33.69666 | -77.72064 | 34125 ft | 422 kts | 204° |
| 2026-05-09 00:48 | 33.64048 | -77.73715 | 34126 ft | 412 kts | 209° |
| 2026-05-09 00:49 | 33.58531 | -77.75575 | 34112 ft | 412 kts | 209° |
| 2026-05-09 00:49 | 33.53001 | -77.77400 | 34096 ft | 413 kts | 208° |
| 2026-05-09 00:50 | 33.47451 | -77.79189 | 34085 ft | 413 kts | 209° |
| 2026-05-09 00:50 | 33.41907 | -77.80997 | 34079 ft | 412 kts | 209° |
| 2026-05-09 00:51 | 33.36403 | -77.82795 | 34073 ft | 413 kts | 209° |
| 2026-05-09 00:51 | 33.30861 | -77.84593 | 34075 ft | 413 kts | 209° |
| 2026-05-09 00:52 | 33.25317 | -77.86392 | 34080 ft | 413 kts | 209° |
| 2026-05-09 00:52 | 33.20700 | -77.87890 | 34085 ft | 413 kts | 209° |
| 2026-05-09 00:53 | 33.15155 | -77.89687 | 34090 ft | 413 kts | 209° |
| 2026-05-09 00:53 | 33.09608 | -77.91479 | 34120 ft | 412 kts | 209° |
| 2026-05-09 00:54 | 33.04064 | -77.93271 | 34123 ft | 412 kts | 209° |
| 2026-05-09 00:54 | 32.98561 | -77.95129 | 34128 ft | 410 kts | 210° |
| 2026-05-09 00:55 | 32.93077 | -77.97046 | 34118 ft | 411 kts | 209° |
| 2026-05-09 00:55 | 32.87580 | -77.98925 | 34113 ft | 411 kts | 209° |
| 2026-05-09 00:56 | 32.82076 | -78.00794 | 34113 ft | 411 kts | 209° |
| 2026-05-09 00:56 | 32.76578 | -78.02671 | 34113 ft | 411 kts | 209° |
| 2026-05-09 00:57 | 32.71084 | -78.04543 | 34113 ft | 411 kts | 209° |
| 2026-05-09 00:57 | 32.65574 | -78.06419 | 34104 ft | 411 kts | 209° |
| 2026-05-09 00:58 | 32.60067 | -78.08288 | 34109 ft | 411 kts | 209° |
| 2026-05-09 00:58 | 32.54597 | -78.10141 | 34111 ft | 411 kts | 209° |
| 2026-05-09 00:59 | 32.49090 | -78.12005 | 34112 ft | 411 kts | 209° |
| 2026-05-09 00:59 | 32.43585 | -78.13868 | 34114 ft | 411 kts | 209° |
| 2026-05-09 01:00 | 32.38080 | -78.15728 | 34118 ft | 411 kts | 208° |
| 2026-05-09 01:00 | 32.32576 | -78.17586 | 34118 ft | 410 kts | 208° |
| 2026-05-09 01:01 | 32.27072 | -78.19443 | 34102 ft | 410 kts | 208° |
| 2026-05-09 01:01 | 32.21621 | -78.21274 | 34065 ft | 410 kts | 208° |
| 2026-05-09 01:02 | 32.16123 | -78.23123 | 34034 ft | 410 kts | 208° |
| 2026-05-09 01:02 | 32.10635 | -78.24965 | 34023 ft | 410 kts | 208° |
| 2026-05-09 01:03 | 32.05147 | -78.26804 | 34017 ft | 410 kts | 208° |
| 2026-05-09 01:03 | 31.99667 | -78.28638 | 34045 ft | 409 kts | 208° |
| 2026-05-09 01:04 | 31.94177 | -78.30476 | 34051 ft | 410 kts | 208° |
| 2026-05-09 01:04 | 31.88733 | -78.32295 | 34067 ft | 409 kts | 208° |
| 2026-05-09 01:05 | 31.83246 | -78.34127 | 34082 ft | 409 kts | 208° |
| 2026-05-09 01:06 | 31.75017 | -78.36869 | 34104 ft | 409 kts | 208° |
| 2026-05-09 01:06 | 31.69529 | -78.38693 | 34117 ft | 409 kts | 207° |
| 2026-05-09 01:07 | 31.64043 | -78.40517 | 34126 ft | 410 kts | 207° |
| 2026-05-09 01:07 | 31.58549 | -78.42337 | 34128 ft | 410 kts | 207° |
| 2026-05-09 01:08 | 31.53087 | -78.44147 | 34131 ft | 410 kts | 207° |
| 2026-05-09 01:08 | 31.47579 | -78.45955 | 34124 ft | 410 kts | 207° |
| 2026-05-09 01:09 | 31.42077 | -78.47728 | 34125 ft | 410 kts | 207° |
| 2026-05-09 01:09 | 31.36567 | -78.49510 | 34121 ft | 410 kts | 207° |
| 2026-05-09 01:10 | 31.31065 | -78.51297 | 34121 ft | 410 kts | 207° |
| 2026-05-09 01:10 | 31.25610 | -78.53061 | 34123 ft | 410 kts | 207° |
| 2026-05-09 01:11 | 31.20105 | -78.54839 | 34125 ft | 410 kts | 207° |
| 2026-05-09 01:11 | 31.14604 | -78.56616 | 34105 ft | 410 kts | 207° |
| 2026-05-09 01:12 | 31.09084 | -78.58396 | 34063 ft | 411 kts | 207° |
| 2026-05-09 01:12 | 31.03560 | -78.60173 | 34048 ft | 411 kts | 207° |
| 2026-05-09 01:13 | 30.98062 | -78.61939 | 34041 ft | 411 kts | 207° |
| 2026-05-09 01:13 | 30.92531 | -78.63714 | 34042 ft | 411 kts | 207° |
| 2026-05-09 01:14 | 30.87006 | -78.65488 | 34043 ft | 411 kts | 207° |
| 2026-05-09 01:14 | 30.81511 | -78.67250 | 34050 ft | 411 kts | 207° |
| 2026-05-09 01:15 | 30.75989 | -78.69015 | 34062 ft | 411 kts | 207° |
| 2026-05-09 01:15 | 30.70466 | -78.70783 | 34071 ft | 412 kts | 207° |
| 2026-05-09 01:16 | 30.64934 | -78.72550 | 34038 ft | 413 kts | 207° |
| 2026-05-09 01:16 | 30.59379 | -78.74323 | 34041 ft | 414 kts | 206° |
| 2026-05-09 01:17 | 30.51010 | -78.76984 | 34017 ft | 417 kts | 205° |
| 2026-05-09 01:17 | 30.45401 | -78.78768 | 34021 ft | 419 kts | 205° |
| 2026-05-09 01:18 | 30.39757 | -78.80564 | 34012 ft | 421 kts | 204° |
| 2026-05-09 01:18 | 30.34125 | -78.82349 | 34010 ft | 424 kts | 204° |
| 2026-05-09 01:19 | 30.28425 | -78.84147 | 34009 ft | 426 kts | 204° |
| 2026-05-09 01:19 | 30.22694 | -78.85959 | 34019 ft | 427 kts | 205° |
| 2026-05-09 01:20 | 30.16948 | -78.87783 | 34063 ft | 428 kts | 206° |
| 2026-05-09 01:20 | 30.11193 | -78.89599 | 34112 ft | 428 kts | 206° |
| 2026-05-09 01:21 | 30.05445 | -78.91408 | 34108 ft | 427 kts | 206° |
| 2026-05-09 01:21 | 29.99732 | -78.93208 | 34106 ft | 425 kts | 206° |
| 2026-05-09 01:22 | 29.94042 | -78.94999 | 34069 ft | 423 kts | 207° |
| 2026-05-09 01:22 | 29.88379 | -78.96779 | 34075 ft | 420 kts | 207° |
| 2026-05-09 01:23 | 29.82765 | -78.98538 | 34096 ft | 417 kts | 207° |
| 2026-05-09 01:23 | 29.77068 | -78.99921 | 34053 ft | 425 kts | 202° |
| 2026-05-09 01:24 | 29.71208 | -79.00955 | 34032 ft | 426 kts | 201° |
| 2026-05-09 01:24 | 29.65343 | -79.02002 | 34027 ft | 425 kts | 201° |
| 2026-05-09 01:25 | 29.59465 | -79.03133 | 34023 ft | 433 kts | 198° |
| 2026-05-09 01:25 | 29.53459 | -79.04231 | 34018 ft | 440 kts | 197° |
| 2026-05-09 01:26 | 29.47387 | -79.05328 | 34003 ft | 443 kts | 198° |
| 2026-05-09 01:26 | 29.41342 | -79.06447 | 33997 ft | 443 kts | 198° |
| 2026-05-09 01:27 | 29.35259 | -79.07567 | 33995 ft | 443 kts | 198° |
| 2026-05-09 01:27 | 29.29165 | -79.08681 | 33996 ft | 443 kts | 198° |
| 2026-05-09 01:28 | 29.23068 | -79.09798 | 33998 ft | 443 kts | 198° |
| 2026-05-09 01:28 | 29.16973 | -79.10915 | 34000 ft | 443 kts | 198° |
| 2026-05-09 01:29 | 29.10880 | -79.12030 | 34001 ft | 443 kts | 198° |
| 2026-05-09 01:29 | 29.04789 | -79.13140 | 33980 ft | 444 kts | 197° |
| 2026-05-09 01:30 | 28.98719 | -79.14246 | 33939 ft | 444 kts | 197° |
| 2026-05-09 01:30 | 28.92608 | -79.15362 | 33923 ft | 445 kts | 197° |
| 2026-05-09 01:31 | 28.86483 | -79.16477 | 33922 ft | 446 kts | 197° |
| 2026-05-09 01:31 | 28.80355 | -79.17590 | 33952 ft | 446 kts | 197° |
| 2026-05-09 01:32 | 28.74226 | -79.18699 | 33999 ft | 446 kts | 197° |
| 2026-05-09 01:32 | 28.68097 | -79.19812 | 34013 ft | 446 kts | 197° |
| 2026-05-09 01:33 | 28.61957 | -79.20924 | 34006 ft | 446 kts | 197° |
| 2026-05-09 01:33 | 28.55862 | -79.22026 | 34012 ft | 445 kts | 197° |
| 2026-05-09 01:34 | 28.49741 | -79.23132 | 33993 ft | 445 kts | 197° |
| 2026-05-09 01:34 | 28.43622 | -79.24236 | 33964 ft | 445 kts | 197° |
| 2026-05-09 01:35 | 28.37538 | -79.25332 | 33959 ft | 445 kts | 197° |
| 2026-05-09 01:35 | 28.31463 | -79.26564 | 33930 ft | 439 kts | 202° |
| 2026-05-09 01:36 | 28.25596 | -79.28426 | 33922 ft | 436 kts | 205° |
| 2026-05-09 01:36 | 28.19777 | -79.30391 | 33923 ft | 437 kts | 204° |
| 2026-05-09 01:37 | 28.14914 | -79.31967 | 33923 ft | 438 kts | 204° |
| 2026-05-09 01:37 | 28.08074 | -79.34161 | 33972 ft | 438 kts | 203° |
| 2026-05-09 01:38 | 28.03193 | -79.35741 | 33979 ft | 439 kts | 203° |
| 2026-05-09 01:38 | 27.97301 | -79.37648 | 33979 ft | 441 kts | 203° |
| 2026-05-09 01:39 | 27.91398 | -79.39554 | 33987 ft | 442 kts | 203° |
| 2026-05-09 01:39 | 27.85474 | -79.41464 | 34038 ft | 442 kts | 203° |
| 2026-05-09 01:40 | 27.82528 | -79.42411 | 33863 ft | 438 kts | 203° |
| 2026-05-09 01:40 | 27.79620 | -79.43343 | 33605 ft | 429 kts | 203° |
| 2026-05-09 01:40 | 27.76773 | -79.44254 | 33352 ft | 420 kts | 204° |
| 2026-05-09 01:40 | 27.73973 | -79.45155 | 33031 ft | 417 kts | 204° |
| 2026-05-09 01:41 | 27.71198 | -79.46052 | 32596 ft | 415 kts | 204° |
| 2026-05-09 01:41 | 27.68448 | -79.46942 | 32127 ft | 413 kts | 204° |
| 2026-05-09 01:41 | 27.65679 | -79.47834 | 31637 ft | 413 kts | 204° |
| 2026-05-09 01:41 | 27.62920 | -79.48719 | 31144 ft | 412 kts | 204° |
| 2026-05-09 01:42 | 27.60168 | -79.49600 | 30663 ft | 411 kts | 204° |
| 2026-05-09 01:42 | 27.57421 | -79.50479 | 30200 ft | 409 kts | 204° |
| 2026-05-09 01:42 | 27.54694 | -79.51350 | 29711 ft | 407 kts | 204° |
| 2026-05-09 01:42 | 27.51970 | -79.52224 | 29199 ft | 407 kts | 204° |
| 2026-05-09 01:43 | 27.49243 | -79.53099 | 28717 ft | 405 kts | 204° |
| 2026-05-09 01:43 | 27.46537 | -79.53966 | 28239 ft | 404 kts | 204° |
| 2026-05-09 01:43 | 27.43840 | -79.54829 | 27762 ft | 402 kts | 204° |
| 2026-05-09 01:43 | 27.41156 | -79.55686 | 27298 ft | 399 kts | 204° |
| 2026-05-09 01:44 | 27.38526 | -79.56522 | 26817 ft | 395 kts | 203° |
| 2026-05-09 01:44 | 27.35893 | -79.57350 | 26335 ft | 392 kts | 203° |
| 2026-05-09 01:44 | 27.33267 | -79.58174 | 25868 ft | 388 kts | 203° |
| 2026-05-09 01:44 | 27.30683 | -79.58986 | 25426 ft | 384 kts | 203° |
| 2026-05-09 01:45 | 27.28119 | -79.59794 | 24971 ft | 380 kts | 203° |
| 2026-05-09 01:45 | 27.25579 | -79.60596 | 24492 ft | 377 kts | 203° |
| 2026-05-09 01:45 | 27.23059 | -79.61389 | 24029 ft | 374 kts | 203° |
| 2026-05-09 01:45 | 27.20562 | -79.62174 | 23588 ft | 370 kts | 203° |
| 2026-05-09 01:46 | 27.18088 | -79.62953 | 23151 ft | 367 kts | 203° |
| 2026-05-09 01:46 | 27.15642 | -79.63731 | 22718 ft | 363 kts | 203° |
| 2026-05-09 01:46 | 27.13223 | -79.64510 | 22276 ft | 360 kts | 203° |
| 2026-05-09 01:46 | 27.10824 | -79.65286 | 21834 ft | 357 kts | 203° |
| 2026-05-09 01:47 | 27.08469 | -79.66043 | 21399 ft | 354 kts | 203° |
| 2026-05-09 01:47 | 27.06109 | -79.66797 | 20963 ft | 351 kts | 203° |
| 2026-05-09 01:47 | 27.03765 | -79.67546 | 20543 ft | 348 kts | 202° |
| 2026-05-09 01:47 | 27.01450 | -79.68285 | 20145 ft | 344 kts | 202° |
| 2026-05-09 01:48 | 26.99154 | -79.69018 | 19720 ft | 342 kts | 202° |
| 2026-05-09 01:48 | 26.96876 | -79.69746 | 19285 ft | 340 kts | 202° |
| 2026-05-09 01:48 | 26.94605 | -79.70471 | 18853 ft | 338 kts | 202° |
| 2026-05-09 01:48 | 26.92353 | -79.71190 | 18455 ft | 335 kts | 202° |
| 2026-05-09 01:49 | 26.90128 | -79.71900 | 18063 ft | 332 kts | 202° |
| 2026-05-09 01:49 | 26.87906 | -79.72607 | 17670 ft | 329 kts | 201° |
| 2026-05-09 01:49 | 26.85740 | -79.73298 | 17258 ft | 327 kts | 201° |
| 2026-05-09 01:49 | 26.83557 | -79.73994 | 16825 ft | 326 kts | 201° |
| 2026-05-09 01:50 | 26.81383 | -79.74687 | 16420 ft | 323 kts | 201° |
| 2026-05-09 01:50 | 26.79223 | -79.75372 | 16028 ft | 321 kts | 200° |
| 2026-05-09 01:50 | 26.77078 | -79.76049 | 15639 ft | 319 kts | 200° |
| 2026-05-09 01:50 | 26.74941 | -79.76721 | 15251 ft | 317 kts | 200° |
| 2026-05-09 01:51 | 26.72820 | -79.77391 | 14843 ft | 315 kts | 200° |
| 2026-05-09 01:51 | 26.70741 | -79.78049 | 14433 ft | 314 kts | 199° |
| 2026-05-09 01:51 | 26.68645 | -79.78813 | 14038 ft | 311 kts | 202° |
| 2026-05-09 01:51 | 26.66642 | -79.79623 | 13656 ft | 309 kts | 203° |
| 2026-05-09 01:52 | 26.64627 | -79.80461 | 13270 ft | 307 kts | 203° |
| 2026-05-09 01:52 | 26.62625 | -79.81292 | 12885 ft | 305 kts | 202° |
| 2026-05-09 01:52 | 26.60631 | -79.82110 | 12489 ft | 304 kts | 202° |
| 2026-05-09 01:52 | 26.58648 | -79.82917 | 12090 ft | 303 kts | 202° |
| 2026-05-09 01:53 | 26.56668 | -79.83723 | 11699 ft | 301 kts | 202° |
| 2026-05-09 01:53 | 26.54737 | -79.84542 | 11316 ft | 299 kts | 204° |
| 2026-05-09 01:53 | 26.52819 | -79.85429 | 10931 ft | 298 kts | 204° |
| 2026-05-09 01:53 | 26.50916 | -79.86334 | 10549 ft | 296 kts | 204° |
| 2026-05-09 01:54 | 26.49030 | -79.87233 | 10171 ft | 294 kts | 204° |
| 2026-05-09 01:54 | 26.47157 | -79.88119 | 9857 ft | 288 kts | 204° |
| 2026-05-09 01:54 | 26.45327 | -79.88978 | 9545 ft | 283 kts | 204° |
| 2026-05-09 01:54 | 26.43510 | -79.89828 | 9148 ft | 281 kts | 204° |
| 2026-05-09 01:55 | 26.41731 | -79.90663 | 8749 ft | 279 kts | 204° |
| 2026-05-09 01:55 | 26.39949 | -79.91499 | 8344 ft | 277 kts | 203° |
| 2026-05-09 01:55 | 26.38187 | -79.92363 | 8041 ft | 276 kts | 207° |
| 2026-05-09 01:55 | 26.36503 | -79.93385 | 8007 ft | 276 kts | 210° |
| 2026-05-09 01:56 | 26.34848 | -79.94466 | 7988 ft | 275 kts | 211° |
| 2026-05-09 01:56 | 26.33193 | -79.95559 | 7695 ft | 276 kts | 211° |
| 2026-05-09 01:56 | 26.31531 | -79.96640 | 7310 ft | 276 kts | 210° |
| 2026-05-09 01:56 | 26.29875 | -79.97698 | 7044 ft | 271 kts | 210° |
| 2026-05-09 01:57 | 26.28249 | -79.98734 | 6809 ft | 268 kts | 210° |
| 2026-05-09 01:57 | 26.26641 | -79.99763 | 6587 ft | 264 kts | 210° |
| 2026-05-09 01:57 | 26.25056 | -80.00785 | 6375 ft | 261 kts | 210° |
| 2026-05-09 01:57 | 26.23495 | -80.01792 | 6170 ft | 258 kts | 210° |
| 2026-05-09 01:58 | 26.21971 | -80.02771 | 5972 ft | 254 kts | 210° |
| 2026-05-09 01:58 | 26.20447 | -80.03748 | 5775 ft | 251 kts | 209° |
| 2026-05-09 01:58 | 26.18940 | -80.04759 | 5576 ft | 248 kts | 215° |
| 2026-05-09 01:58 | 26.17770 | -80.06115 | 5379 ft | 247 kts | 238° |
| 2026-05-09 01:59 | 26.17136 | -80.07890 | 5205 ft | 249 kts | 251° |
| 2026-05-09 01:59 | 26.16678 | -80.09747 | 5013 ft | 248 kts | 252° |
| 2026-05-09 01:59 | 26.16183 | -80.11582 | 4823 ft | 246 kts | 249° |
| 2026-05-09 01:59 | 26.15620 | -80.13376 | 4639 ft | 244 kts | 248° |
| 2026-05-09 02:00 | 26.15091 | -80.15165 | 4454 ft | 243 kts | 256° |
| 2026-05-09 02:00 | 26.14936 | -80.17039 | 4277 ft | 244 kts | 269° |
| 2026-05-09 02:00 | 26.14996 | -80.18899 | 4100 ft | 243 kts | 271° |
| 2026-05-09 02:00 | 26.15062 | -80.20770 | 3920 ft | 241 kts | 270° |
| 2026-05-09 02:01 | 26.15069 | -80.22637 | 3743 ft | 241 kts | 269° |
| 2026-05-09 02:01 | 26.15051 | -80.24497 | 3568 ft | 240 kts | 269° |
| 2026-05-09 02:01 | 26.15057 | -80.26347 | 3441 ft | 235 kts | 271° |
| 2026-05-09 02:01 | 26.15089 | -80.28120 | 3353 ft | 224 kts | 271° |
| 2026-05-09 02:02 | 26.15104 | -80.29817 | 3224 ft | 216 kts | 270° |
| 2026-05-09 02:02 | 26.15109 | -80.31476 | 3011 ft | 212 kts | 271° |
| 2026-05-09 02:02 | 26.15140 | -80.33128 | 3003 ft | 215 kts | 272° |
| 2026-05-09 02:02 | 26.15138 | -80.34793 | 3001 ft | 215 kts | 265° |
| 2026-05-09 02:03 | 26.14705 | -80.36379 | 3000 ft | 217 kts | 242° |
| 2026-05-09 02:03 | 26.13680 | -80.37607 | 3001 ft | 220 kts | 213° |
| 2026-05-09 02:03 | 26.12226 | -80.38133 | 3006 ft | 223 kts | 184° |
| 2026-05-09 02:03 | 26.10665 | -80.38035 | 3021 ft | 224 kts | 175° |
| 2026-05-09 02:04 | 26.09151 | -80.37812 | 3011 ft | 217 kts | 172° |
| 2026-05-09 02:04 | 26.07781 | -80.37252 | 2987 ft | 209 kts | 141° |
| 2026-05-09 02:04 | 26.06985 | -80.35926 | 2997 ft | 210 kts | 102° |
| 2026-05-09 02:04 | 26.07043 | -80.34327 | 3021 ft | 209 kts | 74° |
| 2026-05-09 02:05 | 26.07426 | -80.32762 | 2875 ft | 208 kts | 75° |
| 2026-05-09 02:05 | 26.07676 | -80.31180 | 2632 ft | 208 kts | 83° |
| 2026-05-09 02:05 | 26.07755 | -80.29576 | 2367 ft | 208 kts | 86° |
| 2026-05-09 02:05 | 26.07770 | -80.27970 | 2092 ft | 207 kts | 89° |
| 2026-05-09 02:06 | 26.07757 | -80.26404 | 1821 ft | 197 kts | 91° |
| 2026-05-09 02:06 | 26.07741 | -80.24922 | 1598 ft | 185 kts | 90° |
| 2026-05-09 02:06 | 26.07737 | -80.23553 | 1347 ft | 169 kts | 90° |
| 2026-05-09 02:07 | 26.07722 | -80.21217 | 931 ft | 138 kts | 90° |
| 2026-05-09 02:07 | 26.07716 | -80.20178 | 760 ft | 136 kts | 90° |
| 2026-05-09 02:07 | 26.07709 | -80.19133 | 578 ft | 135 kts | 90° |
| 2026-05-09 02:07 | 26.07704 | -80.18093 | 395 ft | 134 kts | 90° |
| 2026-05-09 02:08 | 26.07698 | -80.17061 | 217 ft | 133 kts | 91° |
| 2026-05-09 02:08 | 26.07691 | -80.16034 | 82 ft | 129 kts | 91° |
| 2026-05-09 02:08 | 26.07688 | -80.15189 | 79 ft | 86 kts | 93° |
| 2026-05-09 02:08 | 26.07684 | -80.14726 | 79 ft | 34 kts | 90° |
| 2026-05-09 02:09 | 26.07683 | -80.14536 | 79 ft | 14 kts | 95° |
| 2026-05-09 02:09 | 26.07652 | -80.14448 | 79 ft | 11 kts | 120° |
| 2026-05-09 02:09 | 26.07621 | -80.14393 | 79 ft | 6 kts | 123° |
| 2026-05-09 02:09 | 26.07600 | -80.14356 | 79 ft | 5 kts | 122° |
| 2026-05-09 02:10 | 26.07578 | -80.14316 | 79 ft | 7 kts | 121° |
| 2026-05-09 02:10 | 26.07558 | -80.14265 | 79 ft | 8 kts | 94° |
| 2026-05-09 02:10 | 26.07536 | -80.14229 | 79 ft | 6 kts | 159° |
| 2026-05-09 02:10 | 26.07509 | -80.14242 | 79 ft | 5 kts | 250° |
| 2026-05-09 02:11 | 26.07507 | -80.14285 | 79 ft | 6 kts | 268° |
| 2026-05-09 02:11 | 26.07507 | -80.14341 | 79 ft | 8 kts | 270° |
| 2026-05-09 02:11 | 26.07507 | -80.14411 | 79 ft | 10 kts | 270° |
| 2026-05-09 02:11 | 26.07508 | -80.14494 | 79 ft | 12 kts | 270° |
| 2026-05-09 02:12 | 26.07508 | -80.14592 | 79 ft | 13 kts | 270° |
| 2026-05-09 02:12 | 26.07508 | -80.14703 | 79 ft | 15 kts | 270° |
| 2026-05-09 02:12 | 26.07478 | -80.14786 | 79 ft | 12 kts | 225° |
| 2026-05-09 02:12 | 26.07427 | -80.14847 | 79 ft | 10 kts | 229° |
| 2026-05-09 02:13 | 26.07383 | -80.14904 | 79 ft | 9 kts | 230° |
| 2026-05-09 02:13 | 26.07342 | -80.14954 | 79 ft | 9 kts | 227° |
| 2026-05-09 02:13 | 26.07302 | -80.15004 | 79 ft | 8 kts | 227° |
| 2026-05-09 02:13 | 26.07266 | -80.15015 | 79 ft | 4 kts | 140° |
| 2026-05-09 02:14 | 26.07239 | -80.14988 | 79 ft | 7 kts | 135° |
| 2026-05-09 02:14 | 26.07187 | -80.14930 | 79 ft | 14 kts | 136° |
| 2026-05-09 02:14 | 26.07117 | -80.14849 | 79 ft | 14 kts | 134° |
| 2026-05-09 02:14 | 26.07072 | -80.14794 | 79 ft | 7 kts | 111° |
| 2026-05-09 02:15 | 26.07082 | -80.14753 | 79 ft | 5 kts | 68° |
| 2026-05-09 02:15 | 26.07093 | -80.14720 | 79 ft | 0 kts | 76° |